sensor_id;sensor_type;location;lat;lon;timestamp;temperature;humidity
67364;HTU21D;54250;45.572;38.086;2022-07-06T00:01:52;20.01;87.51
67364;HTU21D;54250;45.572;38.086;2022-07-06T00:04:19;19.94;87.56
67364;HTU21D;54250;45.572;38.086;2022-07-06T00:06:45;19.86;87.58
67364;HTU21D;54250;45.572;38.086;2022-07-06T00:09:12;19.80;87.61
67364;HTU21D;54250;45.572;38.086;2022-07-06T00:11:38;19.73;87.54
67364;HTU21D;54250;45.572;38.086;2022-07-06T00:14:04;19.68;87.50
67364;HTU21D;54250;45.572;38.086;2022-07-06T00:16:31;19.61;87.53
67364;HTU21D;54250;45.572;38.086;2022-07-06T00:18:57;19.56;87.51
67364;HTU21D;54250;45.572;38.086;2022-07-06T00:21:23;19.51;87.52
67364;HTU21D;54250;45.572;38.086;2022-07-06T00:23:49;19.50;87.41
67364;HTU21D;54250;45.572;38.086;2022-07-06T00:26:19;19.46;87.30
67364;HTU21D;54250;45.572;38.086;2022-07-06T00:28:45;19.39;87.32
67364;HTU21D;54250;45.572;38.086;2022-07-06T00:31:11;19.33;87.28
67364;HTU21D;54250;45.572;38.086;2022-07-06T00:33:37;19.29;87.25
67364;HTU21D;54250;45.572;38.086;2022-07-06T00:36:04;19.24;87.25
67364;HTU21D;54250;45.572;38.086;2022-07-06T00:38:30;19.20;87.23
67364;HTU21D;54250;45.572;38.086;2022-07-06T00:40:56;19.14;87.20
67364;HTU21D;54250;45.572;38.086;2022-07-06T00:43:22;19.09;87.22
67364;HTU21D;54250;45.572;38.086;2022-07-06T00:45:48;19.07;87.17
67364;HTU21D;54250;45.572;38.086;2022-07-06T00:48:14;19.06;87.06
67364;HTU21D;54250;45.572;38.086;2022-07-06T00:50:41;19.01;87.00
67364;HTU21D;54250;45.572;38.086;2022-07-06T00:53:09;18.98;87.00
67364;HTU21D;54250;45.572;38.086;2022-07-06T00:55:38;18.95;86.90
67364;HTU21D;54250;45.572;38.086;2022-07-06T00:58:08;18.95;86.81
67364;HTU21D;54250;45.572;38.086;2022-07-06T01:00:35;18.96;86.70
67364;HTU21D;54250;45.572;38.086;2022-07-06T01:03:01;19.02;86.44
67364;HTU21D;54250;45.572;38.086;2022-07-06T01:05:28;19.03;86.25
67364;HTU21D;54250;45.572;38.086;2022-07-06T01:07:54;19.08;86.09
67364;HTU21D;54250;45.572;38.086;2022-07-06T01:10:23;19.08;85.95
67364;HTU21D;54250;45.572;38.086;2022-07-06T01:12:50;19.12;85.77
67364;HTU21D;54250;45.572;38.086;2022-07-06T01:15:19;19.26;85.35
67364;HTU21D;54250;45.572;38.086;2022-07-06T01:17:46;19.47;84.74
67364;HTU21D;54250;45.572;38.086;2022-07-06T01:20:24;19.60;84.26
67364;HTU21D;54250;45.572;38.086;2022-07-06T01:22:53;19.66;84.03
67364;HTU21D;54250;45.572;38.086;2022-07-06T01:25:20;19.67;84.03
67364;HTU21D;54250;45.572;38.086;2022-07-06T01:27:47;19.69;83.99
67364;HTU21D;54250;45.572;38.086;2022-07-06T01:30:16;19.67;84.06
67364;HTU21D;54250;45.572;38.086;2022-07-06T01:32:42;19.67;84.00
67364;HTU21D;54250;45.572;38.086;2022-07-06T01:35:11;19.70;83.83
67364;HTU21D;54250;45.572;38.086;2022-07-06T01:37:38;19.69;83.68
67364;HTU21D;54250;45.572;38.086;2022-07-06T01:40:06;19.71;83.54
67364;HTU21D;54250;45.572;38.086;2022-07-06T01:42:33;19.66;83.49
67364;HTU21D;54250;45.572;38.086;2022-07-06T01:44:59;19.63;83.44
67364;HTU21D;54250;45.572;38.086;2022-07-06T01:47:25;19.62;83.41
67364;HTU21D;54250;45.572;38.086;2022-07-06T01:49:52;19.62;83.26
67364;HTU21D;54250;45.572;38.086;2022-07-06T01:52:20;19.60;83.12
67364;HTU21D;54250;45.572;38.086;2022-07-06T01:54:47;19.61;82.96
67364;HTU21D;54250;45.572;38.086;2022-07-06T01:57:13;19.62;82.84
67364;HTU21D;54250;45.572;38.086;2022-07-06T01:59:39;19.59;82.76
67364;HTU21D;54250;45.572;38.086;2022-07-06T02:02:05;19.62;82.55
67364;HTU21D;54250;45.572;38.086;2022-07-06T02:04:31;19.70;82.25
67364;HTU21D;54250;45.572;38.086;2022-07-06T02:06:57;19.74;81.95
67364;HTU21D;54250;45.572;38.086;2022-07-06T02:09:24;19.76;81.75
67364;HTU21D;54250;45.572;38.086;2022-07-06T02:11:50;19.80;81.58
67364;HTU21D;54250;45.572;38.086;2022-07-06T02:14:16;19.86;81.34
67364;HTU21D;54250;45.572;38.086;2022-07-06T02:16:42;19.88;81.16
67364;HTU21D;54250;45.572;38.086;2022-07-06T02:19:08;19.90;81.07
67364;HTU21D;54250;45.572;38.086;2022-07-06T02:21:34;19.90;81.00
67364;HTU21D;54250;45.572;38.086;2022-07-06T02:24:00;19.94;80.90
67364;HTU21D;54250;45.572;38.086;2022-07-06T02:26:28;19.94;80.84
67364;HTU21D;54250;45.572;38.086;2022-07-06T02:28:55;19.91;80.85
67364;HTU21D;54250;45.572;38.086;2022-07-06T02:31:21;19.90;80.88
67364;HTU21D;54250;45.572;38.086;2022-07-06T02:33:48;19.94;80.78
67364;HTU21D;54250;45.572;38.086;2022-07-06T02:36:15;19.97;80.62
67364;HTU21D;54250;45.572;38.086;2022-07-06T02:38:42;19.99;80.60
67364;HTU21D;54250;45.572;38.086;2022-07-06T02:41:08;20.01;80.52
67364;HTU21D;54250;45.572;38.086;2022-07-06T02:43:36;20.07;80.43
67364;HTU21D;54250;45.572;38.086;2022-07-06T02:46:02;20.14;80.25
67364;HTU21D;54250;45.572;38.086;2022-07-06T02:48:28;20.25;79.94
67364;HTU21D;54250;45.572;38.086;2022-07-06T02:50:55;20.47;79.47
67364;HTU21D;54250;45.572;38.086;2022-07-06T02:53:22;21.01;78.24
67364;HTU21D;54250;45.572;38.086;2022-07-06T02:55:51;21.72;76.63
67364;HTU21D;54250;45.572;38.086;2022-07-06T02:58:18;22.29;75.31
67364;HTU21D;54250;45.572;38.086;2022-07-06T03:00:44;22.84;74.05
67364;HTU21D;54250;45.572;38.086;2022-07-06T03:03:10;23.30;73.07
67364;HTU21D;54250;45.572;38.086;2022-07-06T03:05:36;23.54;72.53
67364;HTU21D;54250;45.572;38.086;2022-07-06T03:08:03;23.82;71.73
67364;HTU21D;54250;45.572;38.086;2022-07-06T03:10:30;24.13;71.17
67364;HTU21D;54250;45.572;38.086;2022-07-06T03:12:56;24.51;70.16
67364;HTU21D;54250;45.572;38.086;2022-07-06T03:15:22;24.79;69.10
67364;HTU21D;54250;45.572;38.086;2022-07-06T03:17:48;25.09;68.08
67364;HTU21D;54250;45.572;38.086;2022-07-06T03:20:16;25.36;67.59
67364;HTU21D;54250;45.572;38.086;2022-07-06T03:22:43;25.56;66.60
67364;HTU21D;54250;45.572;38.086;2022-07-06T03:25:11;25.82;65.78
67364;HTU21D;54250;45.572;38.086;2022-07-06T03:27:39;26.20;64.80
67364;HTU21D;54250;45.572;38.086;2022-07-06T03:30:05;26.69;63.65
67364;HTU21D;54250;45.572;38.086;2022-07-06T03:32:33;26.99;62.78
67364;HTU21D;54250;45.572;38.086;2022-07-06T03:35:02;27.47;61.70
67364;HTU21D;54250;45.572;38.086;2022-07-06T03:37:30;27.91;59.89
67364;HTU21D;54250;45.572;38.086;2022-07-06T03:39:56;27.99;59.33
67364;HTU21D;54250;45.572;38.086;2022-07-06T03:42:22;28.37;59.09
67364;HTU21D;54250;45.572;38.086;2022-07-06T03:44:50;28.55;58.41
67364;HTU21D;54250;45.572;38.086;2022-07-06T03:47:16;28.60;58.11
67364;HTU21D;54250;45.572;38.086;2022-07-06T03:49:44;28.78;57.45
67364;HTU21D;54250;45.572;38.086;2022-07-06T03:52:12;29.20;57.00
67364;HTU21D;54250;45.572;38.086;2022-07-06T03:54:44;29.52;55.99
67364;HTU21D;54250;45.572;38.086;2022-07-06T03:57:15;29.58;54.94
67364;HTU21D;54250;45.572;38.086;2022-07-06T03:59:41;29.62;54.89
67364;HTU21D;54250;45.572;38.086;2022-07-06T04:02:07;30.02;54.22
67364;HTU21D;54250;45.572;38.086;2022-07-06T04:04:34;30.60;53.09
67364;HTU21D;54250;45.572;38.086;2022-07-06T04:07:01;31.36;51.63
67364;HTU21D;54250;45.572;38.086;2022-07-06T04:09:27;32.02;50.35
67364;HTU21D;54250;45.572;38.086;2022-07-06T04:11:53;32.48;48.76
67364;HTU21D;54250;45.572;38.086;2022-07-06T04:14:20;32.44;48.09
67364;HTU21D;54250;45.572;38.086;2022-07-06T04:16:47;32.33;48.24
67364;HTU21D;54250;45.572;38.086;2022-07-06T04:19:13;32.81;46.77
67364;HTU21D;54250;45.572;38.086;2022-07-06T04:21:40;32.94;46.23
67364;HTU21D;54250;45.572;38.086;2022-07-06T04:24:07;33.35;45.32
67364;HTU21D;54250;45.572;38.086;2022-07-06T04:26:35;33.41;43.90
67364;HTU21D;54250;45.572;38.086;2022-07-06T04:29:01;33.61;43.55
67364;HTU21D;54250;45.572;38.086;2022-07-06T04:31:29;34.11;43.06
67364;HTU21D;54250;45.572;38.086;2022-07-06T04:33:55;34.18;42.24
67364;HTU21D;54250;45.572;38.086;2022-07-06T04:36:22;34.27;41.49
67364;HTU21D;54250;45.572;38.086;2022-07-06T04:38:48;34.75;41.34
67364;HTU21D;54250;45.572;38.086;2022-07-06T04:41:15;35.83;40.60
67364;HTU21D;54250;45.572;38.086;2022-07-06T04:43:42;36.39;38.94
67364;HTU21D;54250;45.572;38.086;2022-07-06T04:46:12;36.41;39.23
67364;HTU21D;54250;45.572;38.086;2022-07-06T04:48:40;36.33;39.10
67364;HTU21D;54250;45.572;38.086;2022-07-06T04:51:12;36.25;38.24
67364;HTU21D;54250;45.572;38.086;2022-07-06T04:53:39;36.14;38.00
67364;HTU21D;54250;45.572;38.086;2022-07-06T04:56:06;35.84;37.30
67364;HTU21D;54250;45.572;38.086;2022-07-06T04:58:35;35.79;37.79
67364;HTU21D;54250;45.572;38.086;2022-07-06T05:01:02;36.17;37.25
67364;HTU21D;54250;45.572;38.086;2022-07-06T05:03:28;36.41;36.68
67364;HTU21D;54250;45.572;38.086;2022-07-06T05:05:54;37.02;36.22
67364;HTU21D;54250;45.572;38.086;2022-07-06T05:08:20;37.60;35.73
67364;HTU21D;54250;45.572;38.086;2022-07-06T05:10:48;37.75;34.92
67364;HTU21D;54250;45.572;38.086;2022-07-06T05:13:15;37.70;34.56
67364;HTU21D;54250;45.572;38.086;2022-07-06T05:15:42;37.81;34.44
67364;HTU21D;54250;45.572;38.086;2022-07-06T05:18:08;38.54;34.08
67364;HTU21D;54250;45.572;38.086;2022-07-06T05:20:34;39.05;33.38
67364;HTU21D;54250;45.572;38.086;2022-07-06T05:23:00;39.11;32.37
67364;HTU21D;54250;45.572;38.086;2022-07-06T05:25:29;38.91;32.05
67364;HTU21D;54250;45.572;38.086;2022-07-06T05:27:57;38.91;31.55
67364;HTU21D;54250;45.572;38.086;2022-07-06T05:30:23;38.94;31.53
67364;HTU21D;54250;45.572;38.086;2022-07-06T05:32:49;39.05;31.46
67364;HTU21D;54250;45.572;38.086;2022-07-06T05:35:15;39.32;30.37
67364;HTU21D;54250;45.572;38.086;2022-07-06T05:37:42;39.82;30.19
67364;HTU21D;54250;45.572;38.086;2022-07-06T05:40:09;39.84;29.79
67364;HTU21D;54250;45.572;38.086;2022-07-06T05:42:36;40.14;29.55
67364;HTU21D;54250;45.572;38.086;2022-07-06T05:45:03;40.41;29.51
67364;HTU21D;54250;45.572;38.086;2022-07-06T05:47:30;40.53;29.03
67364;HTU21D;54250;45.572;38.086;2022-07-06T05:50:15;41.34;28.60
67364;HTU21D;54250;45.572;38.086;2022-07-06T05:53:02;41.75;27.91
67364;HTU21D;54250;45.572;38.086;2022-07-06T05:55:29;41.48;27.93
67364;HTU21D;54250;45.572;38.086;2022-07-06T05:57:58;41.45;27.51
67364;HTU21D;54250;45.572;38.086;2022-07-06T06:00:27;41.88;27.46
67364;HTU21D;54250;45.572;38.086;2022-07-06T06:02:58;41.87;27.04
67364;HTU21D;54250;45.572;38.086;2022-07-06T06:05:25;42.46;26.71
67364;HTU21D;54250;45.572;38.086;2022-07-06T06:07:56;43.26;26.33
67364;HTU21D;54250;45.572;38.086;2022-07-06T06:10:25;43.27;24.49
67364;HTU21D;54250;45.572;38.086;2022-07-06T06:12:54;42.21;24.56
67364;HTU21D;54250;45.572;38.086;2022-07-06T06:15:20;41.66;24.50
67364;HTU21D;54250;45.572;38.086;2022-07-06T06:17:47;40.95;24.88
67364;HTU21D;54250;45.572;38.086;2022-07-06T06:20:14;40.83;25.38
67364;HTU21D;54250;45.572;38.086;2022-07-06T06:25:18;41.25;24.36
67364;HTU21D;54250;45.572;38.086;2022-07-06T06:27:45;40.81;23.99
67364;HTU21D;54250;45.572;38.086;2022-07-06T06:30:12;40.46;24.61
67364;HTU21D;54250;45.572;38.086;2022-07-06T06:32:38;40.86;24.62
67364;HTU21D;54250;45.572;38.086;2022-07-06T06:35:05;40.89;23.91
67364;HTU21D;54250;45.572;38.086;2022-07-06T06:37:32;41.27;24.36
67364;HTU21D;54250;45.572;38.086;2022-07-06T06:40:00;41.58;24.00
67364;HTU21D;54250;45.572;38.086;2022-07-06T06:42:26;41.71;23.44
67364;HTU21D;54250;45.572;38.086;2022-07-06T06:44:52;41.81;24.01
67364;HTU21D;54250;45.572;38.086;2022-07-06T06:47:18;42.20;23.37
67364;HTU21D;54250;45.572;38.086;2022-07-06T06:49:46;41.95;23.14
67364;HTU21D;54250;45.572;38.086;2022-07-06T06:52:13;41.95;23.59
67364;HTU21D;54250;45.572;38.086;2022-07-06T06:54:39;42.40;23.01
67364;HTU21D;54250;45.572;38.086;2022-07-06T06:57:05;42.36;22.70
67364;HTU21D;54250;45.572;38.086;2022-07-06T06:59:32;42.36;23.00
67364;HTU21D;54250;45.572;38.086;2022-07-06T07:01:58;42.40;22.34
67364;HTU21D;54250;45.572;38.086;2022-07-06T07:04:24;41.63;22.96
67364;HTU21D;54250;45.572;38.086;2022-07-06T07:06:50;41.50;23.22
67364;HTU21D;54250;45.572;38.086;2022-07-06T07:09:16;41.77;22.85
67364;HTU21D;54250;45.572;38.086;2022-07-06T07:11:42;41.84;23.24
67364;HTU21D;54250;45.572;38.086;2022-07-06T07:14:08;43.04;22.34
67364;HTU21D;54250;45.572;38.086;2022-07-06T07:16:35;42.64;22.19
67364;HTU21D;54250;45.572;38.086;2022-07-06T07:19:00;42.31;22.20
67364;HTU21D;54250;45.572;38.086;2022-07-06T07:21:27;42.19;22.18
67364;HTU21D;54250;45.572;38.086;2022-07-06T07:23:53;41.74;22.16
67364;HTU21D;54250;45.572;38.086;2022-07-06T07:26:19;41.37;22.71
67364;HTU21D;54250;45.572;38.086;2022-07-06T07:28:45;41.41;22.62
67364;HTU21D;54250;45.572;38.086;2022-07-06T07:31:12;41.40;22.44
67364;HTU21D;54250;45.572;38.086;2022-07-06T07:33:38;41.34;22.74
67364;HTU21D;54250;45.572;38.086;2022-07-06T07:36:05;41.31;22.56
67364;HTU21D;54250;45.572;38.086;2022-07-06T07:38:31;41.11;22.72
67364;HTU21D;54250;45.572;38.086;2022-07-06T07:40:57;41.21;22.96
67364;HTU21D;54250;45.572;38.086;2022-07-06T07:43:23;41.51;22.54
67364;HTU21D;54250;45.572;38.086;2022-07-06T07:45:49;41.66;22.59
67364;HTU21D;54250;45.572;38.086;2022-07-06T07:48:15;41.88;22.52
67364;HTU21D;54250;45.572;38.086;2022-07-06T07:50:49;42.35;22.08
67364;HTU21D;54250;45.572;38.086;2022-07-06T07:53:15;41.93;22.39
67364;HTU21D;54250;45.572;38.086;2022-07-06T07:55:41;41.58;22.74
67364;HTU21D;54250;45.572;38.086;2022-07-06T07:58:07;41.64;23.35
67364;HTU21D;54250;45.572;38.086;2022-07-06T08:00:33;42.02;22.86
67364;HTU21D;54250;45.572;38.086;2022-07-06T08:02:59;42.33;22.63
67364;HTU21D;54250;45.572;38.086;2022-07-06T08:05:26;41.89;22.62
67364;HTU21D;54250;45.572;38.086;2022-07-06T08:07:52;42.46;22.24
67364;HTU21D;54250;45.572;38.086;2022-07-06T08:10:19;42.90;22.11
67364;HTU21D;54250;45.572;38.086;2022-07-06T08:12:45;43.37;22.05
67364;HTU21D;54250;45.572;38.086;2022-07-06T08:15:11;43.68;21.53
67364;HTU21D;54250;45.572;38.086;2022-07-06T08:17:37;43.41;21.42
67364;HTU21D;54250;45.572;38.086;2022-07-06T08:20:05;42.73;21.69
67364;HTU21D;54250;45.572;38.086;2022-07-06T08:22:32;42.75;21.78
67364;HTU21D;54250;45.572;38.086;2022-07-06T08:24:58;42.84;21.62
67364;HTU21D;54250;45.572;38.086;2022-07-06T08:27:24;42.82;21.44
67364;HTU21D;54250;45.572;38.086;2022-07-06T08:29:50;42.74;21.74
67364;HTU21D;54250;45.572;38.086;2022-07-06T08:32:17;43.22;21.31
67364;HTU21D;54250;45.572;38.086;2022-07-06T08:34:43;42.68;21.44
67364;HTU21D;54250;45.572;38.086;2022-07-06T08:37:10;43.00;21.51
67364;HTU21D;54250;45.572;38.086;2022-07-06T08:39:36;43.65;21.57
67364;HTU21D;54250;45.572;38.086;2022-07-06T08:42:02;43.48;21.35
67364;HTU21D;54250;45.572;38.086;2022-07-06T08:44:29;42.85;21.80
67364;HTU21D;54250;45.572;38.086;2022-07-06T08:46:57;42.51;22.25
67364;HTU21D;54250;45.572;38.086;2022-07-06T08:49:25;42.96;21.83
67364;HTU21D;54250;45.572;38.086;2022-07-06T08:51:52;43.16;21.66
67364;HTU21D;54250;45.572;38.086;2022-07-06T08:54:18;43.20;21.75
67364;HTU21D;54250;45.572;38.086;2022-07-06T08:56:45;42.82;22.39
67364;HTU21D;54250;45.572;38.086;2022-07-06T08:59:12;42.80;21.72
67364;HTU21D;54250;45.572;38.086;2022-07-06T09:01:38;42.68;22.01
67364;HTU21D;54250;45.572;38.086;2022-07-06T09:04:08;42.59;21.98
67364;HTU21D;54250;45.572;38.086;2022-07-06T09:06:35;41.94;22.33
67364;HTU21D;54250;45.572;38.086;2022-07-06T09:09:05;41.77;22.50
67364;HTU21D;54250;45.572;38.086;2022-07-06T09:11:32;41.32;22.44
67364;HTU21D;54250;45.572;38.086;2022-07-06T09:13:58;40.60;23.36
67364;HTU21D;54250;45.572;38.086;2022-07-06T09:16:29;39.54;24.85
67364;HTU21D;54250;45.572;38.086;2022-07-06T09:18:56;38.41;25.43
67364;HTU21D;54250;45.572;38.086;2022-07-06T09:21:32;37.02;27.34
67364;HTU21D;54250;45.572;38.086;2022-07-06T09:24:00;36.14;28.35
67364;HTU21D;54250;45.572;38.086;2022-07-06T09:26:28;35.65;29.29
67364;HTU21D;54250;45.572;38.086;2022-07-06T09:28:56;35.31;29.17
67364;HTU21D;54250;45.572;38.086;2022-07-06T09:31:22;35.01;29.96
67364;HTU21D;54250;45.572;38.086;2022-07-06T09:34:01;34.84;30.29
67364;HTU21D;54250;45.572;38.086;2022-07-06T09:36:48;34.82;30.29
67364;HTU21D;54250;45.572;38.086;2022-07-06T09:39:24;34.68;30.77
67364;HTU21D;54250;45.572;38.086;2022-07-06T09:41:53;34.63;30.68
67364;HTU21D;54250;45.572;38.086;2022-07-06T09:44:28;34.57;31.51
67364;HTU21D;54250;45.572;38.086;2022-07-06T09:46:55;34.64;31.29
67364;HTU21D;54250;45.572;38.086;2022-07-06T09:49:21;34.70;31.11
67364;HTU21D;54250;45.572;38.086;2022-07-06T09:51:48;34.53;31.01
67364;HTU21D;54250;45.572;38.086;2022-07-06T09:54:15;34.44;31.64
67364;HTU21D;54250;45.572;38.086;2022-07-06T09:56:43;34.24;31.67
67364;HTU21D;54250;45.572;38.086;2022-07-06T09:59:10;34.25;31.83
67364;HTU21D;54250;45.572;38.086;2022-07-06T10:01:39;34.21;32.00
67364;HTU21D;54250;45.572;38.086;2022-07-06T10:04:09;34.19;31.97
67364;HTU21D;54250;45.572;38.086;2022-07-06T10:06:35;34.03;32.28
67364;HTU21D;54250;45.572;38.086;2022-07-06T10:09:02;33.99;32.42
67364;HTU21D;54250;45.572;38.086;2022-07-06T10:11:30;34.02;32.22
67364;HTU21D;54250;45.572;38.086;2022-07-06T10:13:58;34.07;32.22
67364;HTU21D;54250;45.572;38.086;2022-07-06T10:16:26;34.05;33.00
67364;HTU21D;54250;45.572;38.086;2022-07-06T10:18:52;34.11;32.62
67364;HTU21D;54250;45.572;38.086;2022-07-06T10:21:21;34.06;32.44
67364;HTU21D;54250;45.572;38.086;2022-07-06T10:23:48;33.91;32.53
67364;HTU21D;54250;45.572;38.086;2022-07-06T10:26:15;33.92;32.53
67364;HTU21D;54250;45.572;38.086;2022-07-06T10:28:41;33.83;32.51
67364;HTU21D;54250;45.572;38.086;2022-07-06T10:31:08;33.79;32.36
67364;HTU21D;54250;45.572;38.086;2022-07-06T10:33:34;33.86;32.60
67364;HTU21D;54250;45.572;38.086;2022-07-06T10:36:00;33.79;32.80
67364;HTU21D;54250;45.572;38.086;2022-07-06T10:38:33;33.73;32.76
67364;HTU21D;54250;45.572;38.086;2022-07-06T10:41:07;33.76;32.05
67364;HTU21D;54250;45.572;38.086;2022-07-06T10:43:38;33.73;32.47
67364;HTU21D;54250;45.572;38.086;2022-07-06T10:46:12;33.78;32.64
67364;HTU21D;54250;45.572;38.086;2022-07-06T10:48:39;33.74;32.36
67364;HTU21D;54250;45.572;38.086;2022-07-06T10:51:05;33.67;32.12
67364;HTU21D;54250;45.572;38.086;2022-07-06T10:53:32;33.65;32.42
67364;HTU21D;54250;45.572;38.086;2022-07-06T10:56:00;33.79;33.01
67364;HTU21D;54250;45.572;38.086;2022-07-06T11:01:01;33.81;32.70
67364;HTU21D;54250;45.572;38.086;2022-07-06T11:06:02;33.87;32.56
67364;HTU21D;54250;45.572;38.086;2022-07-06T11:08:43;33.77;31.83
67364;HTU21D;54250;45.572;38.086;2022-07-06T11:14:23;33.57;31.95
67364;HTU21D;54250;45.572;38.086;2022-07-06T11:19:13;33.66;31.86
67364;HTU21D;54250;45.572;38.086;2022-07-06T11:24:29;33.61;31.49
67364;HTU21D;54250;45.572;38.086;2022-07-06T11:26:56;33.67;31.37
67364;HTU21D;54250;45.572;38.086;2022-07-06T11:29:23;33.75;31.26
67364;HTU21D;54250;45.572;38.086;2022-07-06T11:31:50;33.72;31.40
67364;HTU21D;54250;45.572;38.086;2022-07-06T11:34:21;33.71;31.08
67364;HTU21D;54250;45.572;38.086;2022-07-06T11:36:47;33.73;30.87
67364;HTU21D;54250;45.572;38.086;2022-07-06T11:39:13;33.75;30.95
67364;HTU21D;54250;45.572;38.086;2022-07-06T11:41:40;33.74;30.83
67364;HTU21D;54250;45.572;38.086;2022-07-06T11:44:06;33.70;30.78
67364;HTU21D;54250;45.572;38.086;2022-07-06T11:46:35;33.68;31.16
67364;HTU21D;54250;45.572;38.086;2022-07-06T11:49:02;33.74;31.07
67364;HTU21D;54250;45.572;38.086;2022-07-06T11:51:29;33.72;30.35
67364;HTU21D;54250;45.572;38.086;2022-07-06T11:53:56;33.66;30.66
67364;HTU21D;54250;45.572;38.086;2022-07-06T11:56:23;33.66;30.48
67364;HTU21D;54250;45.572;38.086;2022-07-06T11:58:53;33.66;30.51
67364;HTU21D;54250;45.572;38.086;2022-07-06T12:01:20;33.66;30.40
67364;HTU21D;54250;45.572;38.086;2022-07-06T12:03:46;33.65;29.89
67364;HTU21D;54250;45.572;38.086;2022-07-06T12:06:14;33.55;29.61
67364;HTU21D;54250;45.572;38.086;2022-07-06T12:08:41;33.45;29.44
67364;HTU21D;54250;45.572;38.086;2022-07-06T12:11:07;33.40;29.80
67364;HTU21D;54250;45.572;38.086;2022-07-06T12:13:39;33.38;29.72
67364;HTU21D;54250;45.572;38.086;2022-07-06T12:16:09;33.35;29.71
67364;HTU21D;54250;45.572;38.086;2022-07-06T12:18:36;33.23;29.26
67364;HTU21D;54250;45.572;38.086;2022-07-06T12:21:02;33.19;29.26
67364;HTU21D;54250;45.572;38.086;2022-07-06T12:23:37;33.16;29.06
67364;HTU21D;54250;45.572;38.086;2022-07-06T12:26:03;33.16;29.56
67364;HTU21D;54250;45.572;38.086;2022-07-06T12:28:29;33.15;28.02
67364;HTU21D;54250;45.572;38.086;2022-07-06T12:30:55;33.08;28.08
67364;HTU21D;54250;45.572;38.086;2022-07-06T12:33:21;33.05;27.76
67364;HTU21D;54250;45.572;38.086;2022-07-06T12:35:47;32.96;27.93
67364;HTU21D;54250;45.572;38.086;2022-07-06T12:38:13;32.94;28.68
67364;HTU21D;54250;45.572;38.086;2022-07-06T12:40:46;32.99;28.75
67364;HTU21D;54250;45.572;38.086;2022-07-06T12:43:12;33.04;29.06
67364;HTU21D;54250;45.572;38.086;2022-07-06T12:45:38;33.09;29.67
67364;HTU21D;54250;45.572;38.086;2022-07-06T12:48:05;33.06;28.77
67364;HTU21D;54250;45.572;38.086;2022-07-06T12:50:35;33.02;28.64
67364;HTU21D;54250;45.572;38.086;2022-07-06T12:53:02;32.98;28.66
67364;HTU21D;54250;45.572;38.086;2022-07-06T12:55:28;32.98;29.29
67364;HTU21D;54250;45.572;38.086;2022-07-06T12:57:55;32.91;29.00
67364;HTU21D;54250;45.572;38.086;2022-07-06T13:00:21;32.90;28.95
67364;HTU21D;54250;45.572;38.086;2022-07-06T13:02:48;32.83;28.65
67364;HTU21D;54250;45.572;38.086;2022-07-06T13:05:15;32.72;28.45
67364;HTU21D;54250;45.572;38.086;2022-07-06T13:07:45;32.63;27.87
67364;HTU21D;54250;45.572;38.086;2022-07-06T13:10:13;32.59;27.87
67364;HTU21D;54250;45.572;38.086;2022-07-06T13:12:39;32.56;27.74
67364;HTU21D;54250;45.572;38.086;2022-07-06T13:15:06;32.52;27.48
67364;HTU21D;54250;45.572;38.086;2022-07-06T13:17:33;32.44;27.23
67364;HTU21D;54250;45.572;38.086;2022-07-06T13:19:59;32.44;27.12
67364;HTU21D;54250;45.572;38.086;2022-07-06T13:22:25;32.43;26.29
67364;HTU21D;54250;45.572;38.086;2022-07-06T13:24:51;32.42;26.47
67364;HTU21D;54250;45.572;38.086;2022-07-06T13:27:17;32.38;26.59
67364;HTU21D;54250;45.572;38.086;2022-07-06T13:29:43;32.38;26.60
67364;HTU21D;54250;45.572;38.086;2022-07-06T13:32:09;32.35;26.91
67364;HTU21D;54250;45.572;38.086;2022-07-06T13:34:35;32.34;27.15
67364;HTU21D;54250;45.572;38.086;2022-07-06T13:37:01;32.34;27.28
67364;HTU21D;54250;45.572;38.086;2022-07-06T13:39:27;32.31;26.99
67364;HTU21D;54250;45.572;38.086;2022-07-06T13:41:54;32.28;27.05
67364;HTU21D;54250;45.572;38.086;2022-07-06T13:44:20;32.27;27.14
67364;HTU21D;54250;45.572;38.086;2022-07-06T13:46:46;32.28;27.25
67364;HTU21D;54250;45.572;38.086;2022-07-06T13:49:11;32.28;26.49
67364;HTU21D;54250;45.572;38.086;2022-07-06T13:51:38;32.26;26.81
67364;HTU21D;54250;45.572;38.086;2022-07-06T13:54:04;32.22;26.72
67364;HTU21D;54250;45.572;38.086;2022-07-06T13:56:30;32.18;26.79
67364;HTU21D;54250;45.572;38.086;2022-07-06T13:58:56;32.16;27.04
67364;HTU21D;54250;45.572;38.086;2022-07-06T14:01:22;32.14;27.00
67364;HTU21D;54250;45.572;38.086;2022-07-06T14:03:48;32.14;27.02
67364;HTU21D;54250;45.572;38.086;2022-07-06T14:06:14;32.10;27.23
67364;HTU21D;54250;45.572;38.086;2022-07-06T14:08:41;32.10;27.33
67364;HTU21D;54250;45.572;38.086;2022-07-06T14:11:07;32.07;27.42
67364;HTU21D;54250;45.572;38.086;2022-07-06T14:13:34;32.02;27.74
67364;HTU21D;54250;45.572;38.086;2022-07-06T14:16:00;31.99;28.13
67364;HTU21D;54250;45.572;38.086;2022-07-06T14:18:26;31.95;28.24
67364;HTU21D;54250;45.572;38.086;2022-07-06T14:20:52;31.92;27.99
67364;HTU21D;54250;45.572;38.086;2022-07-06T14:23:19;31.89;28.33
67364;HTU21D;54250;45.572;38.086;2022-07-06T14:25:45;31.88;28.32
67364;HTU21D;54250;45.572;38.086;2022-07-06T14:28:12;31.83;28.13
67364;HTU21D;54250;45.572;38.086;2022-07-06T14:30:39;31.80;28.11
67364;HTU21D;54250;45.572;38.086;2022-07-06T14:33:08;31.75;28.09
67364;HTU21D;54250;45.572;38.086;2022-07-06T14:35:35;31.73;28.08
67364;HTU21D;54250;45.572;38.086;2022-07-06T14:38:01;31.69;28.02
67364;HTU21D;54250;45.572;38.086;2022-07-06T14:40:28;31.65;28.37
67364;HTU21D;54250;45.572;38.086;2022-07-06T14:42:53;31.60;28.39
67364;HTU21D;54250;45.572;38.086;2022-07-06T14:45:19;31.61;28.00
67364;HTU21D;54250;45.572;38.086;2022-07-06T14:47:45;31.57;28.16
67364;HTU21D;54250;45.572;38.086;2022-07-06T14:50:11;31.54;28.50
67364;HTU21D;54250;45.572;38.086;2022-07-06T14:52:37;31.46;28.53
67364;HTU21D;54250;45.572;38.086;2022-07-06T14:55:03;31.44;28.55
67364;HTU21D;54250;45.572;38.086;2022-07-06T14:57:29;31.42;28.72
67364;HTU21D;54250;45.572;38.086;2022-07-06T14:59:55;31.40;28.83
67364;HTU21D;54250;45.572;38.086;2022-07-06T15:02:21;31.29;29.32
67364;HTU21D;54250;45.572;38.086;2022-07-06T15:04:47;31.26;29.46
67364;HTU21D;54250;45.572;38.086;2022-07-06T15:07:13;31.20;29.84
67364;HTU21D;54250;45.572;38.086;2022-07-06T15:09:39;31.15;30.25
67364;HTU21D;54250;45.572;38.086;2022-07-06T15:12:06;31.06;30.79
67364;HTU21D;54250;45.572;38.086;2022-07-06T15:14:32;30.95;30.90
67364;HTU21D;54250;45.572;38.086;2022-07-06T15:16:58;30.85;31.41
67364;HTU21D;54250;45.572;38.086;2022-07-06T15:19:24;30.76;31.54